createdAt,value
2023-03-07T00:03:52.735Z,81.48133
2023-03-07T00:08:54.240Z,85.22556
2023-03-07T00:13:55.745Z,88.36492
2023-03-07T00:18:57.258Z,83.51766
2023-03-07T00:23:58.722Z,82.75179
2023-03-07T00:29:00.236Z,83.13726
2023-03-07T00:34:01.797Z,86.54803
2023-03-07T00:39:03.316Z,86.27329
2023-03-07T00:44:04.834Z,92.18046
2023-03-07T00:49:06.360Z,91.20277
2023-03-07T00:54:08.018Z,96.98649
2023-03-07T00:59:09.533Z,98.4475
2023-03-07T01:04:11.116Z,98.1368
2023-03-07T01:09:12.562Z,98.60578
2023-03-07T01:14:14.092Z,100
2023-03-07T01:19:15.627Z,100
2023-03-07T01:24:17.239Z,100
2023-03-07T01:29:18.697Z,100
2023-03-07T01:34:20.167Z,100
2023-03-07T01:39:21.724Z,100
2023-03-07T01:44:23.298Z,100
2023-03-07T01:49:24.866Z,94.70428
2023-03-07T01:54:26.464Z,98.6636
2023-03-07T01:59:28.002Z,100
2023-03-07T02:04:29.510Z,100
2023-03-07T02:09:31.039Z,100
2023-03-07T02:14:32.565Z,100
2023-03-07T02:19:34.043Z,100
2023-03-07T02:24:35.546Z,100
2023-03-07T02:29:37.686Z,100
2023-03-07T02:34:39.212Z,100
2023-03-07T02:39:40.711Z,100
2023-03-07T02:44:42.218Z,100
2023-03-07T02:49:43.800Z,100
2023-03-07T02:54:45.331Z,100
2023-03-07T02:59:46.837Z,100
2023-03-07T03:04:48.456Z,100
2023-03-07T03:09:50.039Z,100
2023-03-07T03:14:51.515Z,100
2023-03-07T03:19:53.154Z,100
2023-03-07T03:24:54.692Z,100
2023-03-07T03:29:56.310Z,100
2023-03-07T03:34:57.807Z,100
2023-03-07T03:39:59.312Z,100
2023-03-07T03:45:00.746Z,100
2023-03-07T03:50:02.186Z,100
2023-03-07T03:55:03.712Z,100
2023-03-07T04:00:05.163Z,100
2023-03-07T04:05:06.725Z,100
2023-03-07T04:10:08.206Z,100
2023-03-07T04:15:09.693Z,100
2023-03-07T04:20:11.229Z,100
2023-03-07T04:25:12.755Z,100
2023-03-07T04:30:14.440Z,100
2023-03-07T04:35:15.907Z,100
2023-03-07T04:40:17.391Z,100
2023-03-07T04:45:18.919Z,100
2023-03-07T04:50:20.399Z,100
2023-03-07T04:55:22.101Z,100
2023-03-07T05:00:23.578Z,100
2023-03-07T05:05:25.011Z,100
2023-03-07T05:10:26.466Z,100
2023-03-07T05:15:28.008Z,100
2023-03-07T05:20:29.481Z,100
2023-03-07T05:25:30.934Z,100
2023-03-07T05:30:33.228Z,100
2023-03-07T05:35:34.933Z,100
2023-03-07T05:40:36.413Z,100
2023-03-07T05:45:37.911Z,100
2023-03-07T05:50:39.497Z,100
2023-03-07T05:55:41.031Z,100
2023-03-07T06:00:42.578Z,100
2023-03-07T06:05:44.004Z,100
2023-03-07T06:10:45.573Z,100
2023-03-07T06:15:47.110Z,100
2023-03-07T06:20:48.589Z,100
2023-03-07T06:25:50.126Z,100
2023-03-07T06:30:51.659Z,100
2023-03-07T06:35:53.193Z,100
2023-03-07T06:40:54.696Z,96.12714
2023-03-07T06:45:56.232Z,92.96294
2023-03-07T06:50:57.793Z,92.89788
2023-03-07T06:55:59.330Z,88.13186
2023-03-07T07:01:00.842Z,85.89386
2023-03-07T07:06:02.443Z,81.54656
2023-03-07T07:11:03.968Z,80.14911
2023-03-07T07:16:05.446Z,78.27476
2023-03-07T07:21:06.960Z,81.27232
2023-03-07T07:26:08.431Z,75.24196
2023-03-07T07:31:09.901Z,72.21251
2023-03-07T07:36:11.726Z,73.19605
2023-03-07T07:41:13.178Z,74.10009
2023-03-07T07:46:14.756Z,74.69687
2023-03-07T07:51:16.202Z,72.96629
2023-03-07T07:56:17.679Z,74.5378
2023-03-07T08:01:19.154Z,70.43106
2023-03-07T08:06:20.643Z,70.35446
2023-03-07T08:11:22.242Z,63.40279
2023-03-07T08:16:23.718Z,60.51755
2023-03-07T08:21:25.253Z,62.37296
2023-03-07T08:26:26.754Z,58.42866
2023-03-07T08:31:28.399Z,59.34626
2023-03-07T08:36:30.107Z,55.74282
2023-03-07T08:41:31.764Z,52.35843
2023-03-07T08:46:33.330Z,57.68913
2023-03-07T08:51:34.812Z,53.1576
2023-03-07T08:56:36.336Z,52.49261
2023-03-07T09:01:39.624Z,53.06243
2023-03-07T09:06:42.579Z,49.72201
2023-03-07T09:11:44.042Z,52.17069
2023-03-07T09:16:45.567Z,48.82051
2023-03-07T09:21:47.080Z,48.28516
2023-03-07T09:26:48.609Z,50.59936
2023-03-07T09:31:50.721Z,50.47715
2023-03-07T09:36:52.303Z,46.49818
2023-03-07T09:41:53.771Z,50.62138
2023-03-07T09:46:55.345Z,47.55642
2023-03-07T09:51:56.827Z,45.75832
2023-03-07T09:56:58.299Z,45.96167
2023-03-07T10:01:59.796Z,44.7648
2023-03-07T10:07:01.421Z,49.27329
2023-03-07T10:12:04.782Z,44.87652
2023-03-07T10:17:06.715Z,50.35028
2023-03-07T10:22:08.148Z,46.82381
2023-03-07T10:27:09.758Z,45.12183
2023-03-07T10:32:11.486Z,43.88513
2023-03-07T10:37:13.125Z,40.97123
2023-03-07T10:42:14.651Z,43.36531
2023-03-07T10:47:16.187Z,39.63069
2023-03-07T10:52:17.881Z,37.00436
2023-03-07T10:57:19.353Z,39.88071
2023-03-07T11:02:20.897Z,42.49014
2023-03-07T11:07:22.436Z,38.96958
2023-03-07T11:12:23.969Z,41.7088
2023-03-07T11:17:25.415Z,39.0123
2023-03-07T11:22:26.914Z,36.8911
2023-03-07T11:27:28.414Z,36.98081
2023-03-07T11:32:29.920Z,39.21238
2023-03-07T11:37:31.494Z,37.81452
2023-03-07T11:42:32.999Z,38.50252
2023-03-07T11:47:34.510Z,36.03423
2023-03-07T11:52:36.043Z,38.8935
2023-03-07T11:57:37.556Z,36.08598
2023-03-07T12:02:39.125Z,37.08855
2023-03-07T12:07:40.610Z,38.46011
2023-03-07T12:12:42.333Z,37.33232
2023-03-07T12:17:43.781Z,37.4155
2023-03-07T12:22:45.288Z,37.23047
2023-03-07T12:27:46.797Z,36.62401
2023-03-07T12:32:48.410Z,36.53991
2023-03-07T12:37:49.908Z,35.36566
2023-03-07T12:42:51.541Z,39.66024
2023-03-07T12:47:53.284Z,41.02168
2023-03-07T12:52:54.736Z,41.55033
2023-03-07T12:57:56.267Z,41.82483
2023-03-07T13:02:58.695Z,42.46264
2023-03-07T13:08:00.230Z,43.84716
2023-03-07T13:13:02.127Z,54.52758
2023-03-07T13:18:03.622Z,59.5901
2023-03-07T13:23:05.429Z,64.08713
2023-03-07T13:28:06.940Z,59.39068
2023-03-07T13:33:09.198Z,60.03051
2023-03-07T13:38:10.741Z,59.70318
2023-03-07T13:43:12.182Z,59.66846
2023-03-07T13:48:13.693Z,57.8941
2023-03-07T13:53:15.215Z,56.55645
2023-03-07T13:58:16.977Z,50.38561
2023-03-07T14:03:18.521Z,54.16638
2023-03-07T14:08:20.005Z,57.29147
2023-03-07T14:13:21.699Z,55.45419
2023-03-07T14:18:23.244Z,56.37699
2023-03-07T14:23:24.784Z,55.44563
2023-03-07T14:28:26.670Z,57.9151
2023-03-07T14:33:28.227Z,59.86121
2023-03-07T14:38:29.754Z,58.24023
2023-03-07T14:43:31.244Z,61.1784
2023-03-07T14:48:32.757Z,66.77691
2023-03-07T14:53:34.309Z,71.5457
2023-03-07T14:58:35.746Z,81.53032
2023-03-07T15:03:37.334Z,79.2033
2023-03-07T15:08:38.848Z,85.75064
2023-03-07T15:13:40.376Z,95.05169
2023-03-07T15:18:42.033Z,97.3176
2023-03-07T15:23:43.579Z,96.16632
2023-03-07T15:28:45.073Z,98.08275
2023-03-07T15:33:46.529Z,100
2023-03-07T15:38:48.073Z,100
2023-03-07T15:43:49.578Z,100
2023-03-07T15:48:51.106Z,100
2023-03-07T15:53:52.546Z,100
2023-03-07T15:58:54.053Z,97.14481
2023-03-07T16:03:56.048Z,99.20999
2023-03-07T16:08:57.616Z,99.07603
2023-03-07T16:13:59.221Z,97.40384
2023-03-07T16:19:00.846Z,89.18827
2023-03-07T16:24:02.417Z,85.5461
2023-03-07T16:29:03.943Z,86.99312
2023-03-07T16:34:05.472Z,85.56972
2023-03-07T16:39:07.031Z,86.13329
2023-03-07T16:44:08.511Z,84.71477
2023-03-07T16:49:09.984Z,85.66876
2023-03-07T16:54:11.445Z,83.91463
2023-03-07T16:59:12.954Z,89.38468
2023-03-07T17:04:14.443Z,100
2023-03-07T17:09:15.990Z,100
2023-03-07T17:14:17.501Z,100
2023-03-07T17:19:19.219Z,100
2023-03-07T17:24:21.215Z,100
2023-03-07T17:29:22.892Z,100
2023-03-07T17:34:24.422Z,100
2023-03-07T17:39:25.929Z,100
2023-03-07T17:44:27.438Z,100
2023-03-07T17:49:28.959Z,100
2023-03-07T17:54:30.479Z,100
2023-03-07T17:59:32.175Z,100
2023-03-07T18:04:33.661Z,100
2023-03-07T18:09:35.129Z,100
2023-03-07T18:14:36.658Z,100
2023-03-07T18:19:38.177Z,100
2023-03-07T18:24:39.698Z,100
2023-03-07T18:29:41.209Z,100
2023-03-07T18:34:42.945Z,100
2023-03-07T18:39:44.442Z,100
2023-03-07T18:44:45.883Z,100
2023-03-07T18:49:47.346Z,100
2023-03-07T18:54:48.893Z,100
2023-03-07T18:59:50.387Z,100
2023-03-07T19:04:52.073Z,100
2023-03-07T19:09:53.807Z,100
2023-03-07T19:14:55.345Z,100
2023-03-07T19:19:56.801Z,100
2023-03-07T19:24:58.400Z,100
2023-03-07T19:29:59.919Z,100
2023-03-07T19:35:01.364Z,100
2023-03-07T19:40:02.976Z,100
2023-03-07T19:45:04.462Z,100
2023-03-07T19:50:05.897Z,100
2023-03-07T19:55:07.347Z,100
2023-03-07T20:00:08.956Z,100
2023-03-07T20:05:10.523Z,100
2023-03-07T20:10:12.071Z,100
2023-03-07T20:15:13.576Z,100
2023-03-07T20:20:15.171Z,100
2023-03-07T20:25:16.783Z,100
2023-03-07T20:30:18.241Z,100
2023-03-07T20:35:19.773Z,100
2023-03-07T20:40:21.272Z,100
2023-03-07T20:45:22.722Z,100
2023-03-07T20:50:24.214Z,100
2023-03-07T20:55:25.684Z,100
2023-03-07T21:00:27.103Z,100
2023-03-07T21:05:28.661Z,100
2023-03-07T21:10:30.094Z,100
2023-03-07T21:15:31.552Z,100
2023-03-07T21:20:33.295Z,100
2023-03-07T21:25:34.864Z,100
2023-03-07T21:30:36.324Z,100
2023-03-07T21:35:37.958Z,100
2023-03-07T21:40:39.570Z,100
2023-03-07T21:45:41.071Z,100
2023-03-07T21:50:42.602Z,100
2023-03-07T21:55:44.133Z,100
2023-03-07T22:00:45.637Z,100
2023-03-07T22:05:47.562Z,100
2023-03-07T22:10:49.069Z,100
2023-03-07T22:15:50.571Z,100
2023-03-07T22:20:52.046Z,100
2023-03-07T22:25:53.543Z,100
2023-03-07T22:30:55.007Z,100
2023-03-07T22:35:56.559Z,100
2023-03-07T22:40:58.082Z,100
2023-03-07T22:45:59.639Z,100
2023-03-07T22:51:01.140Z,100
2023-03-07T22:56:02.573Z,100
2023-03-07T23:01:04.167Z,100
2023-03-07T23:06:05.636Z,100
2023-03-07T23:11:07.148Z,100
2023-03-07T23:16:08.850Z,100
2023-03-07T23:21:10.320Z,100
2023-03-07T23:26:11.828Z,100
2023-03-07T23:31:13.424Z,100
2023-03-07T23:36:14.941Z,100
2023-03-07T23:41:16.917Z,100
2023-03-07T23:46:18.435Z,100
2023-03-07T23:51:19.990Z,100
2023-03-07T23:56:21.507Z,100
